createdAt,value
2022-11-17T00:01:24.078Z,6.57
2022-11-17T00:03:52.049Z,5.63
2022-11-17T00:06:22.275Z,6.55
2022-11-17T00:08:52.893Z,7.35
2022-11-17T00:11:20.107Z,7.45
2022-11-17T00:14:06.107Z,7.10
2022-11-17T00:16:33.337Z,6.77
2022-11-17T00:19:19.490Z,7.13
2022-11-17T00:21:46.758Z,7.28
2022-11-17T00:24:17.148Z,7.10
2022-11-17T00:27:02.805Z,7.63
2022-11-17T00:29:30.576Z,7.17
2022-11-17T00:32:16.345Z,7.13
2022-11-17T00:34:43.810Z,7.57
2022-11-17T00:37:12.230Z,7.25
2022-11-17T00:39:41.100Z,6.93
2022-11-17T00:42:08.438Z,6.63
2022-11-17T00:44:35.636Z,7.18
2022-11-17T00:47:02.934Z,7.05
2022-11-17T00:49:30.119Z,7.63
2022-11-17T00:51:57.811Z,6.93
2022-11-17T00:54:25.389Z,7.27
2022-11-17T00:56:54.015Z,7.47
2022-11-17T00:59:21.431Z,7.13
2022-11-17T01:01:48.953Z,7.45
2022-11-17T01:04:16.494Z,6.30
2022-11-17T01:06:46.281Z,5.87
2022-11-17T01:09:15.598Z,5.43
2022-11-17T01:11:43.784Z,7.00
2022-11-17T01:14:15.581Z,6.35
2022-11-17T01:16:43.139Z,6.78
2022-11-17T01:19:12.032Z,6.27
2022-11-17T01:21:39.293Z,5.13
2022-11-17T01:24:07.174Z,7.15
2022-11-17T01:26:36.293Z,7.10
2022-11-17T01:29:04.915Z,7.13
2022-11-17T01:31:36.079Z,6.40
2022-11-17T01:34:03.444Z,4.93
2022-11-17T01:36:51.016Z,6.80
2022-11-17T01:39:18.525Z,5.60
2022-11-17T01:41:45.867Z,6.13
2022-11-17T01:44:52.849Z,7.03
2022-11-17T01:47:25.166Z,6.05
2022-11-17T01:49:56.384Z,6.43
2022-11-17T01:52:25.254Z,6.13
2022-11-17T01:54:55.585Z,6.18
2022-11-17T01:57:27.326Z,6.00
2022-11-17T01:59:59.393Z,7.20
2022-11-17T02:02:28.720Z,6.70
2022-11-17T02:05:04.041Z,6.10
2022-11-17T02:07:34.256Z,4.95
2022-11-17T02:10:02.612Z,5.73
2022-11-17T02:12:32.348Z,6.35
2022-11-17T02:15:00.952Z,6.13
2022-11-17T02:17:35.616Z,6.38
2022-11-17T02:20:07.314Z,6.35
2022-11-17T02:22:59.865Z,6.60
2022-11-17T02:25:45.442Z,6.72
2022-11-17T02:28:19.670Z,5.80
2022-11-17T02:31:05.634Z,5.63
2022-11-17T02:33:46.398Z,6.57
2022-11-17T02:36:19.112Z,5.90
2022-11-17T02:38:54.402Z,6.32
2022-11-17T02:41:27.653Z,6.22
2022-11-17T02:44:04.990Z,6.30
2022-11-17T02:46:43.578Z,6.22
2022-11-17T02:49:17.444Z,6.27
2022-11-17T02:51:48.076Z,6.28
2022-11-17T02:54:16.431Z,6.75
2022-11-17T02:56:43.847Z,5.93
2022-11-17T02:59:16.148Z,6.50
2022-11-17T03:02:02.846Z,6.30
2022-11-17T03:04:35.674Z,6.38
2022-11-17T03:07:15.702Z,7.05
2022-11-17T03:09:49.252Z,6.72
2022-11-17T03:12:22.014Z,6.10
2022-11-17T03:14:58.624Z,6.87
2022-11-17T03:17:32.240Z,6.40
2022-11-17T03:20:04.336Z,6.80
2022-11-17T03:22:41.607Z,6.53
2022-11-17T03:25:14.164Z,6.53
2022-11-17T03:27:45.678Z,5.70
2022-11-17T03:30:15.744Z,6.70
2022-11-17T03:32:48.419Z,6.25
2022-11-17T03:35:19.453Z,6.88
2022-11-17T03:37:51.403Z,6.57
2022-11-17T03:40:20.921Z,5.93
2022-11-17T03:42:53.838Z,6.43
2022-11-17T03:45:25.569Z,6.53
2022-11-17T03:47:58.601Z,7.07
2022-11-17T03:50:31.068Z,6.47
2022-11-17T03:52:58.496Z,6.03
2022-11-17T03:55:34.101Z,6.15
2022-11-17T03:58:04.976Z,3.08
2022-11-17T04:00:36.223Z,6.22
2022-11-17T04:03:03.801Z,6.47
2022-11-17T04:05:30.993Z,6.37
2022-11-17T04:07:58.190Z,6.60
2022-11-17T04:10:26.319Z,6.63
2022-11-17T04:13:12.739Z,6.80
2022-11-17T04:15:56.393Z,6.68
2022-11-17T04:18:24.125Z,7.00
2022-11-17T04:20:52.760Z,7.03
2022-11-17T04:23:20.344Z,6.15
2022-11-17T04:26:07.913Z,7.13
2022-11-17T04:28:36.818Z,6.85
2022-11-17T04:31:07.061Z,6.33
2022-11-17T04:33:34.789Z,6.93
2022-11-17T04:36:03.058Z,7.43
2022-11-17T04:38:30.318Z,7.35
2022-11-17T04:41:23.974Z,6.72
2022-11-17T04:43:51.621Z,6.83
2022-11-17T04:46:21.493Z,6.32
2022-11-17T04:48:49.287Z,7.15
2022-11-17T04:51:17.267Z,6.38
2022-11-17T04:53:45.033Z,5.97
2022-11-17T04:56:13.153Z,6.97
2022-11-17T04:58:40.959Z,7.47
2022-11-17T05:01:14.470Z,6.75
2022-11-17T05:03:44.250Z,7.55
2022-11-17T05:06:13.915Z,7.00
2022-11-17T05:08:41.416Z,7.13
2022-11-17T05:11:28.373Z,7.60
2022-11-17T05:13:56.373Z,7.32
2022-11-17T05:16:42.690Z,7.53
2022-11-17T05:19:13.979Z,6.90
2022-11-17T05:21:41.495Z,7.67
2022-11-17T05:24:09.388Z,8.13
2022-11-17T05:26:37.899Z,7.68
2022-11-17T05:29:07.249Z,7.68
2022-11-17T05:31:34.855Z,7.72
2022-11-17T05:34:03.231Z,7.70
2022-11-17T05:36:31.790Z,8.07
2022-11-17T05:38:59.276Z,7.05
2022-11-17T05:41:28.792Z,7.05
2022-11-17T05:43:56.824Z,8.10
2022-11-17T05:46:24.831Z,7.73
2022-11-17T05:48:52.763Z,7.45
2022-11-17T05:51:22.233Z,6.32
2022-11-17T05:53:51.090Z,7.68
2022-11-17T05:56:32.422Z,8.35
2022-11-17T05:59:07.473Z,6.67
2022-11-17T06:01:37.614Z,7.50
2022-11-17T06:04:07.292Z,6.45
2022-11-17T06:06:37.255Z,7.80
2022-11-17T06:09:05.771Z,8.15
2022-11-17T06:11:33.292Z,7.53
2022-11-17T06:14:00.554Z,8.02
2022-11-17T06:16:31.813Z,8.00
2022-11-17T06:19:04.143Z,8.45
2022-11-17T06:21:49.289Z,6.63
2022-11-17T06:24:20.513Z,7.27
2022-11-17T06:26:47.840Z,7.50
2022-11-17T06:29:15.788Z,7.93
2022-11-17T06:31:44.475Z,7.30
2022-11-17T06:34:12.775Z,7.90
2022-11-17T06:36:40.027Z,7.40
2022-11-17T06:39:07.285Z,7.65
2022-11-17T06:41:36.382Z,8.52
2022-11-17T06:44:03.757Z,5.03
2022-11-17T06:46:37.905Z,7.85
2022-11-17T06:49:06.189Z,8.07
2022-11-17T06:51:33.848Z,7.93
2022-11-17T06:54:01.454Z,7.28
2022-11-17T06:56:28.687Z,7.00
2022-11-17T06:58:57.270Z,6.88
2022-11-17T07:01:24.539Z,7.87
2022-11-17T07:03:51.940Z,7.05
2022-11-17T07:06:19.225Z,8.20
2022-11-17T07:08:46.674Z,7.82
2022-11-17T07:11:16.450Z,7.85
2022-11-17T07:13:44.039Z,7.27
2022-11-17T07:16:17.512Z,7.95
2022-11-17T07:18:47.464Z,7.60
2022-11-17T07:21:15.405Z,5.72
2022-11-17T07:23:44.729Z,7.38
2022-11-17T07:26:12.305Z,6.93
2022-11-17T07:28:39.650Z,6.75
2022-11-17T07:31:08.920Z,7.43
2022-11-17T07:33:37.525Z,6.68
2022-11-17T07:36:07.673Z,6.78
2022-11-17T07:38:35.717Z,6.20
2022-11-17T07:41:04.371Z,6.63
2022-11-17T07:43:32.783Z,7.30
2022-11-17T07:46:04.098Z,7.45
2022-11-17T07:48:32.530Z,6.90
2022-11-17T07:51:03.012Z,6.47
2022-11-17T07:53:31.583Z,6.68
2022-11-17T07:56:02.955Z,7.85
2022-11-17T07:58:30.193Z,6.60
2022-11-17T08:00:57.512Z,7.65
2022-11-17T08:03:24.821Z,10.00
2022-11-17T08:05:53.333Z,7.35
2022-11-17T08:08:21.856Z,8.07
2022-11-17T08:10:49.031Z,6.07
2022-11-17T08:13:16.234Z,6.60
2022-11-17T08:15:43.561Z,6.50
2022-11-17T08:18:10.904Z,5.97
2022-11-17T08:20:38.268Z,4.18
2022-11-17T08:23:05.478Z,6.55
2022-11-17T08:25:33.997Z,6.45
2022-11-17T08:28:01.215Z,6.07
2022-11-17T08:30:28.619Z,6.97
2022-11-17T08:32:55.895Z,5.57
2022-11-17T08:35:25.111Z,5.90
2022-11-17T08:37:52.644Z,5.50
2022-11-17T08:40:20.506Z,6.80
2022-11-17T08:43:00.420Z,7.18
2022-11-17T08:45:28.473Z,6.15
2022-11-17T08:47:56.486Z,7.15
2022-11-17T08:50:23.747Z,6.78
2022-11-17T08:52:52.197Z,6.70
2022-11-17T08:55:19.454Z,6.32
2022-11-17T08:57:46.740Z,4.43
2022-11-17T09:00:19.232Z,6.45
2022-11-17T09:02:47.838Z,7.07
2022-11-17T09:05:15.148Z,5.67
2022-11-17T09:07:42.459Z,7.38
2022-11-17T09:10:11.032Z,6.60
2022-11-17T09:12:38.382Z,6.47
2022-11-17T09:15:06.507Z,5.88
2022-11-17T09:17:33.721Z,6.43
2022-11-17T09:20:02.237Z,4.68
2022-11-17T09:22:29.453Z,8.10
2022-11-17T09:24:56.638Z,7.03
2022-11-17T09:27:23.838Z,8.60
2022-11-17T09:29:51.081Z,5.87
2022-11-17T09:32:19.385Z,7.32
2022-11-17T09:34:46.695Z,7.53
2022-11-17T09:37:15.269Z,7.20
2022-11-17T09:39:42.482Z,6.63
2022-11-17T09:42:13.802Z,7.93
2022-11-17T09:44:45.860Z,6.38
2022-11-17T09:47:24.727Z,5.97
2022-11-17T09:49:59.238Z,7.47
2022-11-17T09:52:32.757Z,7.30
2022-11-17T09:55:02.505Z,8.10
2022-11-17T09:57:36.565Z,7.15
2022-11-17T10:00:07.504Z,8.07
2022-11-17T10:02:34.904Z,6.78
2022-11-17T10:05:02.326Z,7.95
2022-11-17T10:07:33.816Z,7.43
2022-11-17T10:10:03.467Z,6.78
2022-11-17T10:12:36.816Z,8.15
2022-11-17T10:15:22.509Z,8.48
2022-11-17T10:17:50.735Z,7.40
2022-11-17T10:20:18.961Z,7.10
2022-11-17T10:22:48.464Z,8.35
2022-11-17T10:25:23.066Z,7.25
2022-11-17T10:27:53.248Z,7.45
2022-11-17T10:30:23.645Z,7.95
2022-11-17T10:32:53.076Z,6.90
2022-11-17T10:35:22.907Z,7.60
2022-11-17T10:37:57.387Z,7.00
2022-11-17T10:40:27.023Z,6.90
2022-11-17T10:42:58.220Z,8.10
2022-11-17T10:45:25.844Z,7.33
2022-11-17T10:48:07.585Z,7.75
2022-11-17T10:50:35.100Z,7.68
2022-11-17T10:53:21.954Z,6.28
2022-11-17T10:55:55.136Z,6.72
2022-11-17T10:58:25.405Z,6.37
2022-11-17T11:00:55.233Z,6.85
2022-11-17T11:03:24.579Z,6.95
2022-11-17T11:06:03.594Z,7.03
2022-11-17T11:08:49.976Z,7.88
2022-11-17T11:11:32.027Z,7.63
2022-11-17T11:14:12.723Z,7.25
2022-11-17T11:16:46.582Z,7.20
2022-11-17T11:19:18.128Z,6.75
2022-11-17T11:21:57.400Z,7.70
2022-11-17T11:24:34.197Z,6.97
2022-11-17T11:27:15.964Z,6.55
2022-11-17T11:29:55.066Z,6.05
2022-11-17T11:32:30.480Z,6.03
2022-11-17T11:35:26.821Z,6.88
2022-11-17T11:38:04.330Z,7.00
2022-11-17T11:40:38.108Z,5.53
2022-11-17T11:43:18.168Z,7.32
2022-11-17T11:45:54.364Z,5.25
2022-11-17T11:48:26.627Z,5.07
2022-11-17T11:50:57.769Z,5.90
2022-11-17T11:53:36.395Z,7.07
2022-11-17T11:56:16.013Z,7.10
2022-11-17T11:58:49.180Z,6.10
2022-11-17T12:01:19.752Z,7.65
2022-11-17T12:03:54.077Z,6.83
2022-11-17T12:06:43.027Z,5.53
2022-11-17T12:09:46.436Z,6.10
2022-11-17T12:12:17.915Z,6.72
2022-11-17T12:15:10.092Z,7.03
2022-11-17T12:17:38.319Z,6.97
2022-11-17T12:20:44.402Z,6.78
2022-11-17T12:23:19.425Z,5.28
2022-11-17T12:25:53.586Z,7.60
2022-11-17T12:28:32.261Z,6.55
2022-11-17T12:31:05.066Z,4.47
2022-11-17T12:34:14.571Z,6.43
2022-11-17T12:36:41.977Z,6.50
2022-11-17T12:39:47.632Z,6.28
2022-11-17T12:42:14.819Z,6.40
2022-11-17T12:44:58.533Z,7.57
2022-11-17T12:47:28.246Z,5.28
2022-11-17T12:50:21.724Z,7.32
2022-11-17T12:53:14.673Z,6.65
2022-11-17T12:56:05.705Z,5.38
2022-11-17T12:58:40.255Z,6.47
2022-11-17T13:01:16.840Z,6.13
2022-11-17T13:03:49.390Z,6.03
2022-11-17T13:06:34.782Z,6.35
2022-11-17T13:09:06.389Z,6.22
2022-11-17T13:11:35.237Z,5.83
2022-11-17T13:14:10.125Z,6.22
2022-11-17T13:16:45.090Z,6.18
2022-11-17T13:19:33.551Z,6.03
2022-11-17T13:22:03.673Z,5.68
2022-11-17T13:24:33.226Z,6.30
2022-11-17T13:27:00.947Z,6.63
2022-11-17T13:29:28.454Z,5.68
2022-11-17T13:32:14.958Z,5.88
2022-11-17T13:34:49.854Z,6.70
2022-11-17T13:37:19.205Z,7.40
2022-11-17T13:39:57.438Z,6.57
2022-11-17T13:42:26.756Z,6.57
2022-11-17T13:44:56.119Z,4.93
2022-11-17T13:47:41.763Z,6.00
2022-11-17T13:50:23.652Z,6.93
2022-11-17T13:52:53.872Z,7.03
2022-11-17T13:55:22.510Z,7.10
2022-11-17T13:57:55.526Z,5.80
2022-11-17T14:00:23.180Z,6.85
2022-11-17T14:02:55.308Z,6.53
2022-11-17T14:05:25.768Z,4.05
2022-11-17T14:07:54.600Z,7.70
2022-11-17T14:10:31.693Z,6.65
2022-11-17T14:13:20.268Z,7.20
2022-11-17T14:15:53.808Z,6.00
2022-11-17T14:18:27.882Z,7.20
2022-11-17T14:21:12.237Z,7.30
2022-11-17T14:23:40.440Z,5.65
2022-11-17T14:26:18.383Z,6.75
2022-11-17T14:28:46.975Z,7.50
2022-11-17T14:31:14.240Z,6.88
2022-11-17T14:33:43.153Z,6.10
2022-11-17T14:36:13.435Z,5.25
2022-11-17T14:38:40.735Z,6.40
2022-11-17T14:41:08.058Z,6.47
2022-11-17T14:43:35.333Z,6.22
2022-11-17T14:46:03.051Z,7.22
2022-11-17T14:48:30.268Z,7.78
2022-11-17T14:50:59.799Z,7.25
2022-11-17T14:53:28.293Z,7.43
2022-11-17T14:55:55.488Z,6.57
2022-11-17T14:58:22.672Z,7.68
2022-11-17T15:00:49.893Z,7.68
2022-11-17T15:03:17.142Z,6.53
2022-11-17T15:05:45.584Z,7.30
2022-11-17T15:08:14.588Z,6.80
2022-11-17T15:10:45.298Z,7.53
2022-11-17T15:13:12.578Z,6.60
2022-11-17T15:15:39.986Z,7.88
2022-11-17T15:18:07.903Z,8.53
2022-11-17T15:20:35.112Z,8.00
2022-11-17T15:23:03.561Z,8.02
2022-11-17T15:25:32.216Z,8.30
2022-11-17T15:27:59.462Z,6.95
2022-11-17T15:30:26.694Z,8.77
2022-11-17T15:32:53.907Z,7.38
2022-11-17T15:35:21.985Z,6.68
2022-11-17T15:37:49.171Z,8.27
2022-11-17T15:40:19.378Z,9.07
2022-11-17T15:42:48.253Z,8.23
2022-11-17T15:45:15.718Z,6.60
2022-11-17T15:47:42.910Z,8.55
2022-11-17T15:50:10.743Z,8.40
2022-11-17T15:53:02.007Z,6.22
2022-11-17T15:55:25.078Z,8.97
2022-11-17T15:57:57.447Z,7.25
2022-11-17T16:00:24.618Z,6.60
2022-11-17T16:02:55.789Z,7.65
2022-11-17T16:05:25.736Z,7.47
2022-11-17T16:07:52.930Z,8.17
2022-11-17T16:10:20.107Z,7.18
2022-11-17T16:12:49.449Z,8.90
2022-11-17T16:15:18.043Z,7.68
2022-11-17T16:17:45.192Z,7.55
2022-11-17T16:20:12.681Z,8.70
2022-11-17T16:22:39.890Z,8.65
2022-11-17T16:25:10.311Z,8.45
2022-11-17T16:27:37.517Z,9.15
2022-11-17T16:30:05.749Z,9.65
2022-11-17T16:32:34.370Z,8.87
2022-11-17T16:35:01.545Z,8.23
2022-11-17T16:37:28.766Z,8.50
2022-11-17T16:39:56.335Z,8.73
2022-11-17T16:42:23.520Z,8.15
2022-11-17T16:44:50.844Z,8.43
2022-11-17T16:47:18.096Z,7.55
2022-11-17T16:49:51.511Z,8.50
2022-11-17T16:52:18.933Z,7.80
2022-11-17T16:54:46.131Z,7.75
2022-11-17T16:57:13.290Z,7.33
2022-11-17T16:59:40.470Z,6.70
2022-11-17T17:02:09.782Z,7.88
2022-11-17T17:04:36.951Z,8.10
2022-11-17T17:07:05.580Z,8.38
2022-11-17T17:09:32.971Z,7.87
2022-11-17T17:12:00.188Z,7.22
2022-11-17T17:14:27.374Z,8.63
2022-11-17T17:16:54.552Z,6.32
2022-11-17T17:19:21.834Z,7.82
2022-11-17T17:21:49.057Z,6.07
2022-11-17T17:24:17.916Z,6.78
2022-11-17T17:26:45.178Z,7.05
2022-11-17T17:29:12.738Z,6.95
2022-11-17T17:31:41.475Z,6.63
2022-11-17T17:34:11.323Z,8.70
2022-11-17T17:36:38.651Z,7.68
2022-11-17T17:39:06.551Z,8.02
2022-11-17T17:41:39.170Z,8.30
2022-11-17T17:44:07.841Z,6.70
2022-11-17T17:46:36.824Z,8.23
2022-11-17T17:49:04.930Z,7.07
2022-11-17T17:51:35.332Z,8.25
2022-11-17T17:54:02.788Z,8.13
2022-11-17T17:56:32.983Z,8.73
2022-11-17T17:59:02.368Z,9.87
2022-11-17T18:01:32.928Z,9.27
2022-11-17T18:04:04.686Z,8.93
2022-11-17T18:06:35.880Z,9.35
2022-11-17T18:09:03.608Z,9.65
2022-11-17T18:11:31.164Z,7.93
2022-11-17T18:13:58.511Z,10.25
2022-11-17T18:16:28.827Z,9.85
2022-11-17T18:18:57.957Z,8.18
2022-11-17T18:21:25.935Z,9.93
2022-11-17T18:23:53.913Z,10.90
2022-11-17T18:26:23.211Z,10.63
2022-11-17T18:28:53.555Z,7.40
2022-11-17T18:31:22.272Z,9.02
2022-11-17T18:33:52.390Z,9.77
2022-11-17T18:36:19.656Z,7.23
2022-11-17T18:38:47.510Z,9.75
2022-11-17T18:41:16.608Z,9.55
2022-11-17T18:43:44.666Z,11.23
2022-11-17T18:46:13.557Z,9.90
2022-11-17T18:48:42.530Z,10.23
2022-11-17T18:51:20.953Z,9.60
2022-11-17T18:53:49.480Z,7.93
2022-11-17T18:56:18.083Z,9.63
2022-11-17T18:58:45.699Z,10.30
2022-11-17T19:01:15.011Z,10.03
2022-11-17T19:03:43.905Z,6.53
2022-11-17T19:06:14.336Z,9.88
2022-11-17T19:08:41.586Z,9.52
2022-11-17T19:11:09.702Z,10.40
2022-11-17T19:13:39.114Z,10.50
2022-11-17T19:16:09.003Z,8.80
2022-11-17T19:18:36.419Z,9.27
2022-11-17T19:21:05.655Z,10.30
2022-11-17T19:23:35.767Z,10.93
2022-11-17T19:26:04.638Z,10.47
2022-11-17T19:28:31.901Z,11.38
2022-11-17T19:31:02.922Z,10.57
2022-11-17T19:33:31.359Z,10.35
2022-11-17T19:36:03.587Z,11.20
2022-11-17T19:38:33.717Z,10.67
2022-11-17T19:41:06.978Z,11.35
2022-11-17T19:43:37.025Z,11.70
2022-11-17T19:46:09.151Z,11.23
2022-11-17T19:48:36.372Z,10.52
2022-11-17T19:51:12.844Z,11.23
2022-11-17T19:53:40.118Z,10.55
2022-11-17T19:56:09.000Z,10.77
2022-11-17T19:58:36.223Z,11.38
2022-11-17T20:01:11.479Z,9.82
2022-11-17T20:03:39.871Z,10.83
2022-11-17T20:06:08.094Z,11.07
2022-11-17T20:08:35.309Z,11.95
2022-11-17T20:11:04.308Z,11.60
2022-11-17T20:13:33.560Z,11.57
2022-11-17T20:16:02.877Z,11.47
2022-11-17T20:18:32.520Z,11.88
2022-11-17T20:21:03.048Z,11.70
2022-11-17T20:23:32.376Z,8.98
2022-11-17T20:26:02.910Z,11.70
2022-11-17T20:28:33.698Z,11.33
2022-11-17T20:31:06.558Z,11.07
2022-11-17T20:33:34.307Z,10.85
2022-11-17T20:36:02.138Z,10.88
2022-11-17T20:38:29.550Z,11.30
2022-11-17T20:40:57.784Z,12.47
2022-11-17T20:43:25.387Z,11.45
2022-11-17T20:45:54.799Z,11.52
2022-11-17T20:48:22.841Z,12.02
2022-11-17T20:50:57.223Z,12.05
2022-11-17T20:53:24.765Z,11.50
2022-11-17T20:55:52.426Z,11.98
2022-11-17T20:58:19.713Z,10.95
2022-11-17T21:00:46.997Z,11.48
2022-11-17T21:03:15.714Z,10.88
2022-11-17T21:05:43.140Z,11.30
2022-11-17T21:08:10.344Z,10.85
2022-11-17T21:10:37.542Z,11.00
2022-11-17T21:13:04.727Z,11.65
2022-11-17T21:15:31.908Z,11.30
2022-11-17T21:18:17.765Z,10.67
2022-11-17T21:20:46.259Z,10.63
2022-11-17T21:23:14.353Z,11.63
2022-11-17T21:25:41.655Z,10.65
2022-11-17T21:28:09.382Z,10.02
2022-11-17T21:30:36.631Z,10.57
2022-11-17T21:33:03.900Z,11.48
2022-11-17T21:35:31.829Z,10.95
2022-11-17T21:38:00.344Z,12.13
2022-11-17T21:40:27.851Z,10.75
2022-11-17T21:42:55.044Z,10.87
2022-11-17T21:45:22.239Z,11.98
2022-11-17T21:47:49.419Z,11.55
2022-11-17T21:50:17.283Z,11.50
2022-11-17T21:52:44.846Z,11.57
2022-11-17T21:55:13.411Z,8.53
2022-11-17T21:57:40.612Z,11.82
2022-11-17T22:00:09.201Z,10.75
2022-11-17T22:02:36.384Z,10.35
2022-11-17T22:05:03.764Z,11.90
2022-11-17T22:07:31.003Z,11.47
2022-11-17T22:09:58.223Z,10.57
2022-11-17T22:12:27.541Z,10.73
2022-11-17T22:14:54.715Z,12.60
2022-11-17T22:17:21.904Z,10.50
2022-11-17T22:19:49.098Z,10.70
2022-11-17T22:22:16.283Z,10.57
2022-11-17T22:24:49.472Z,12.07
2022-11-17T22:27:17.353Z,12.18
2022-11-17T22:29:45.869Z,10.82
2022-11-17T22:32:13.110Z,10.83
2022-11-17T22:34:40.303Z,8.52
2022-11-17T22:37:07.492Z,11.85
2022-11-17T22:39:34.688Z,11.32
2022-11-17T22:42:02.020Z,8.73
2022-11-17T22:44:29.217Z,10.93
2022-11-17T22:46:57.710Z,9.50
2022-11-17T22:49:24.917Z,12.52
2022-11-17T22:52:04.368Z,11.40
2022-11-17T22:54:31.845Z,10.75
2022-11-17T22:56:59.340Z,11.60
2022-11-17T22:59:27.877Z,10.73
2022-11-17T23:01:56.969Z,12.07
2022-11-17T23:04:24.201Z,10.23
2022-11-17T23:06:51.847Z,12.65
2022-11-17T23:09:19.356Z,10.87
2022-11-17T23:11:46.751Z,10.68
2022-11-17T23:14:14.800Z,12.18
2022-11-17T23:16:42.282Z,11.02
2022-11-17T23:19:13.887Z,11.82
2022-11-17T23:21:42.132Z,12.33
2022-11-17T23:24:10.923Z,13.48
2022-11-17T23:26:38.315Z,11.55
2022-11-17T23:29:05.800Z,12.10
2022-11-17T23:31:33.057Z,12.38
2022-11-17T23:34:00.299Z,11.87
2022-11-17T23:36:28.838Z,12.60
2022-11-17T23:38:57.619Z,14.13
2022-11-17T23:41:24.955Z,12.10
2022-11-17T23:43:53.563Z,11.48
2022-11-17T23:46:23.249Z,12.07
2022-11-17T23:48:50.693Z,10.93
2022-11-17T23:51:19.198Z,12.40
2022-11-17T23:53:49.298Z,13.38
2022-11-17T23:56:18.869Z,12.48
2022-11-17T23:58:46.145Z,12.90
